Time;durP1;ratioP1;P1;durP2;ratioP2;P2;SDS_P1;SDS_P2;PMS_P1;PMS_P2;Temp;Humidity;BMP_temperature;BMP_pressure;BME280_temperature;BME280_humidity;BME280_pressure;Samples;Min_cycle;Max_cycle;Signal;HPM_P1;HPM_P2
2022/06/13 00:02:22;;;;;;;;;;;16.00;99.90;;;;;;5049189;28;19943;-63
2022/06/13 00:04:51;;;;;;;;;;;15.90;99.90;;;;;;5038792;28;19925;-63
2022/06/13 00:07:18;;;;;;;;;;;15.80;99.90;;;;;;5039832;28;20000;-63
2022/06/13 00:09:44;;;;;;;;;;;15.70;99.90;;;;;;5038643;28;19972;-62
2022/06/13 00:12:11;;;;;;;;;;;15.60;99.90;;;;;;5048506;28;19944;-63
2022/06/13 00:14:37;;;;;;;;;;;15.60;99.90;;;;;;5044973;28;19964;-63
2022/06/13 00:17:04;;;;;;;;;;;15.60;99.90;;;;;;5047479;28;19932;-63
2022/06/13 00:19:31;;;;;;;;;;;15.50;99.90;;;;;;5049812;28;19972;-63
2022/06/13 00:21:57;;;;;;;;;;;15.40;99.90;;;;;;5045575;28;19932;-63
2022/06/13 00:24:24;;;;;;;;;;;15.40;99.90;;;;;;5036745;28;19931;-62
2022/06/13 00:26:51;;;;;;;;;;;15.40;99.90;;;;;;5044674;28;19931;-63
2022/06/13 00:29:17;;;;;;;;;;;15.30;99.90;;;;;;5045395;28;19931;-63
2022/06/13 00:31:44;;;;;;;;;;;15.30;99.90;;;;;;5038488;28;19925;-63
2022/06/13 00:34:11;;;;;;;;;;;15.20;99.90;;;;;;5037138;28;19929;-63
2022/06/13 00:36:37;;;;;;;;;;;15.20;99.90;;;;;;5038962;28;20403;-63
2022/06/13 00:39:07;;;;;;;;;;;15.10;99.90;;;;;;5048627;28;20042;-62
2022/06/13 00:41:36;;;;;;;;;;;15.00;99.90;;;;;;5050950;28;20019;-64
2022/06/13 00:44:20;;;;;;;;;;;15.00;99.90;;;;;;5034135;28;20016;-63
2022/06/13 00:46:46;;;;;;;;;;;15.00;99.90;;;;;;5048406;28;20124;-64
2022/06/13 00:49:15;;;;;;;;;;;15.10;99.90;;;;;;5052351;28;19960;-63
2022/06/13 00:51:50;;;;;;;;;;;15.10;99.90;;;;;;5052755;28;19939;-66
2022/06/13 00:54:18;;;;;;;;;;;15.30;99.90;;;;;;5052031;28;19970;-63
2022/06/13 00:56:45;;;;;;;;;;;15.40;99.90;;;;;;5051175;28;19933;-63
2022/06/13 00:59:14;;;;;;;;;;;15.60;99.90;;;;;;5053459;28;20360;-64
2022/06/13 01:01:40;;;;;;;;;;;15.70;99.90;;;;;;5047714;28;20407;-64
2022/06/13 01:04:08;;;;;;;;;;;15.80;99.90;;;;;;5040448;28;20048;-63
2022/06/13 01:06:36;;;;;;;;;;;15.80;99.90;;;;;;5038352;28;20364;-63
2022/06/13 01:09:05;;;;;;;;;;;15.80;99.90;;;;;;5049719;28;19935;-64
2022/06/13 01:11:32;;;;;;;;;;;15.80;99.90;;;;;;5047687;28;19924;-64
2022/06/13 01:13:59;;;;;;;;;;;15.80;99.90;;;;;;5050234;28;19925;-64
2022/06/13 01:16:25;;;;;;;;;;;15.80;99.90;;;;;;5050860;28;19954;-64
2022/06/13 01:19:14;;;;;;;;;;;15.70;99.90;;;;;;5040476;28;19926;-65
2022/06/13 01:21:50;;;;;;;;;;;15.60;99.90;;;;;;5049903;28;20311;-64
2022/06/13 01:24:35;;;;;;;;;;;15.50;99.90;;;;;;5047969;28;19970;-64
2022/06/13 01:27:21;;;;;;;;;;;15.40;99.90;;;;;;5051569;28;19971;-64
2022/06/13 01:29:47;;;;;;;;;;;15.30;99.90;;;;;;5038735;28;20020;-64
2022/06/13 01:32:38;;;;;;;;;;;15.20;99.90;;;;;;5041211;28;19925;-63
2022/06/13 01:35:20;;;;;;;;;;;15.20;99.90;;;;;;5052398;28;19924;-64
2022/06/13 01:38:13;;;;;;;;;;;15.20;99.90;;;;;;5041236;28;19925;-64
2022/06/13 01:40:46;;;;;;;;;;;15.20;99.90;;;;;;5041556;28;20011;-64
2022/06/13 01:43:28;;;;;;;;;;;15.10;99.90;;;;;;5042764;28;19935;-66
2022/06/13 01:46:03;;;;;;;;;;;15.00;99.90;;;;;;5034035;28;19925;-64
2022/06/13 01:48:37;;;;;;;;;;;14.90;99.90;;;;;;5039301;28;19924;-64
2022/06/13 01:51:04;;;;;;;;;;;14.90;99.90;;;;;;5043480;28;19931;-64
2022/06/13 01:53:53;;;;;;;;;;;14.90;99.90;;;;;;5044481;28;20375;-65
2022/06/13 01:56:23;;;;;;;;;;;14.80;99.90;;;;;;5047931;28;19932;-64
2022/06/13 01:59:15;;;;;;;;;;;14.70;99.90;;;;;;5038724;28;19925;-64
2022/06/13 02:01:44;;;;;;;;;;;14.60;99.90;;;;;;5048541;28;19966;-64
2022/06/13 02:04:13;;;;;;;;;;;14.50;99.90;;;;;;5044121;28;19929;-64
2022/06/13 02:06:41;;;;;;;;;;;14.40;99.90;;;;;;5045908;28;19933;-64
2022/06/13 02:09:13;;;;;;;;;;;14.30;99.90;;;;;;5048260;28;19978;-64
2022/06/13 02:11:48;;;;;;;;;;;14.20;99.90;;;;;;5039110;28;19924;-64
2022/06/13 02:14:17;;;;;;;;;;;14.10;99.90;;;;;;5048024;28;19925;-64
2022/06/13 02:16:47;;;;;;;;;;;14.00;99.90;;;;;;5050229;28;20016;-64
2022/06/13 02:19:20;;;;;;;;;;;13.90;99.90;;;;;;5050087;28;19928;-64
2022/06/13 02:21:53;;;;;;;;;;;13.80;99.90;;;;;;5047314;28;20021;-65
2022/06/13 02:24:22;;;;;;;;;;;13.70;99.90;;;;;;5044760;28;20291;-64
2022/06/13 02:26:51;;;;;;;;;;;13.60;99.90;;;;;;5045470;28;19931;-64
2022/06/13 02:29:21;;;;;;;;;;;13.40;99.90;;;;;;5040235;28;20379;-64
2022/06/13 02:31:56;;;;;;;;;;;13.30;99.90;;;;;;5050981;28;19925;-64
2022/06/13 02:34:32;;;;;;;;;;;13.20;99.90;;;;;;5049610;28;19926;-65
2022/06/13 02:37:02;;;;;;;;;;;13.10;99.90;;;;;;5047792;28;19929;-64
2022/06/13 02:39:28;;;;;;;;;;;13.00;99.90;;;;;;5051630;28;20379;-64
2022/06/13 02:42:15;;;;;;;;;;;12.90;99.90;;;;;;5047815;28;20006;-64
2022/06/13 02:44:51;;;;;;;;;;;12.80;99.90;;;;;;5041443;28;19932;-64
2022/06/13 02:47:36;;;;;;;;;;;12.80;99.90;;;;;;5050465;28;19999;-64
2022/06/13 02:50:14;;;;;;;;;;;12.70;99.90;;;;;;5036600;28;19931;-64
2022/06/13 02:52:44;;;;;;;;;;;12.60;99.90;;;;;;5042990;28;19925;-64
2022/06/13 02:55:13;;;;;;;;;;;12.60;99.90;;;;;;5048142;28;19968;-64
2022/06/13 02:57:49;;;;;;;;;;;12.60;99.90;;;;;;5039224;28;20367;-65
2022/06/13 03:00:30;;;;;;;;;;;12.60;99.90;;;;;;5050984;28;19932;-64
2022/06/13 03:03:04;;;;;;;;;;;12.60;99.90;;;;;;5047928;28;19935;-64
2022/06/13 03:05:37;;;;;;;;;;;12.60;99.90;;;;;;5052842;28;19931;-64
2022/06/13 03:08:16;;;;;;;;;;;12.70;99.90;;;;;;5038150;28;20003;-65
2022/06/13 03:10:46;;;;;;;;;;;12.90;99.90;;;;;;5060346;28;19932;-65
2022/06/13 03:13:35;;;;;;;;;;;13.10;99.90;;;;;;5037098;28;19947;-64
2022/06/13 03:16:22;;;;;;;;;;;13.30;99.90;;;;;;5032807;28;20016;-64
2022/06/13 03:18:53;;;;;;;;;;;13.40;99.90;;;;;;5042240;28;19975;-63
2022/06/13 03:21:24;;;;;;;;;;;13.40;99.90;;;;;;5032780;28;19925;-64
2022/06/13 03:23:55;;;;;;;;;;;13.40;99.90;;;;;;5030899;28;20571;-66
2022/06/13 03:26:42;;;;;;;;;;;13.50;99.90;;;;;;5040767;28;20417;-63
2022/06/13 03:29:13;;;;;;;;;;;13.50;99.90;;;;;;5049080;28;20015;-63
2022/06/13 03:31:55;;;;;;;;;;;13.60;99.90;;;;;;5051768;28;19925;-64
2022/06/13 03:34:25;;;;;;;;;;;13.60;99.90;;;;;;5017551;28;25209;-64
2022/06/13 03:37:04;;;;;;;;;;;13.60;99.90;;;;;;5027928;28;25119;-64
2022/06/13 03:39:49;;;;;;;;;;;13.70;99.90;;;;;;5047095;28;19940;-64
2022/06/13 03:42:26;;;;;;;;;;;13.80;99.90;;;;;;5049100;28;19964;-64
2022/06/13 03:44:58;;;;;;;;;;;13.80;99.90;;;;;;5049519;28;19971;-64
2022/06/13 03:47:27;;;;;;;;;;;14.00;99.90;;;;;;5050965;28;20016;-64
2022/06/13 03:50:09;;;;;;;;;;;14.00;99.90;;;;;;5050911;28;20004;-64
2022/06/13 03:52:39;;;;;;;;;;;14.10;99.90;;;;;;5048648;28;19999;-64
2022/06/13 03:55:09;;;;;;;;;;;14.10;99.90;;;;;;5050311;28;19943;-64
2022/06/13 03:57:38;;;;;;;;;;;14.20;99.90;;;;;;5048044;28;19933;-64
2022/06/13 04:00:16;;;;;;;;;;;14.20;99.90;;;;;;5050587;28;20019;-64
2022/06/13 04:02:44;;;;;;;;;;;14.30;99.90;;;;;;5050364;28;20497;-64
2022/06/13 04:05:32;;;;;;;;;;;14.40;99.90;;;;;;5049181;28;19968;-64
2022/06/13 04:08:01;;;;;;;;;;;14.50;99.90;;;;;;5062127;28;19939;-64
2022/06/13 04:10:29;;;;;;;;;;;14.60;99.90;;;;;;5074678;28;19932;-64
2022/06/13 04:13:14;;;;;;;;;;;14.70;99.90;;;;;;5073116;28;19924;-64
2022/06/13 04:15:53;;;;;;;;;;;14.70;99.90;;;;;;5040343;28;20024;-63
2022/06/13 04:18:39;;;;;;;;;;;14.80;99.90;;;;;;5037817;28;19960;-63
2022/06/13 04:21:14;;;;;;;;;;;14.90;99.90;;;;;;5054430;28;19925;-64
2022/06/13 04:24:05;;;;;;;;;;;15.00;99.90;;;;;;5049896;28;19925;-63
2022/06/13 04:26:37;;;;;;;;;;;15.10;99.90;;;;;;5048739;28;20015;-64
2022/06/13 04:29:22;;;;;;;;;;;15.20;99.90;;;;;;5042660;28;19931;-63
2022/06/13 04:31:52;;;;;;;;;;;15.30;99.90;;;;;;5038110;28;19925;-63
2022/06/13 04:34:24;;;;;;;;;;;15.40;99.90;;;;;;5048856;28;19956;-63
2022/06/13 04:36:51;;;;;;;;;;;15.50;99.90;;;;;;5048349;28;19978;-64
2022/06/13 04:39:20;;;;;;;;;;;15.50;99.90;;;;;;5044145;28;20380;-63
2022/06/13 04:41:55;;;;;;;;;;;15.70;99.90;;;;;;5045583;28;19925;-63
2022/06/13 04:44:23;;;;;;;;;;;16.50;99.90;;;;;;5040674;28;19925;-63
2022/06/13 04:46:51;;;;;;;;;;;16.80;99.90;;;;;;5037562;28;20478;-63
2022/06/13 04:49:24;;;;;;;;;;;16.80;99.90;;;;;;5048883;28;19929;-63
2022/06/13 04:51:52;;;;;;;;;;;16.60;99.90;;;;;;5052231;28;19931;-63
2022/06/13 04:54:24;;;;;;;;;;;16.70;99.90;;;;;;5051327;28;19940;-64
2022/06/13 04:56:53;;;;;;;;;;;17.30;99.90;;;;;;5046234;28;20019;-63
2022/06/13 04:59:19;;;;;;;;;;;17.80;99.90;;;;;;5047636;28;19932;-63
2022/06/13 05:01:46;;;;;;;;;;;17.70;99.90;;;;;;5047324;28;20019;-63
2022/06/13 05:04:15;;;;;;;;;;;17.60;99.90;;;;;;5042797;28;20159;-63
2022/06/13 05:07:05;;;;;;;;;;;17.30;99.90;;;;;;5037557;28;19924;-63
2022/06/13 05:09:34;;;;;;;;;;;16.90;99.90;;;;;;5044301;28;19925;-64
2022/06/13 05:12:06;;;;;;;;;;;16.90;99.90;;;;;;5048129;28;20047;-64
2022/06/13 05:14:38;;;;;;;;;;;18.20;99.90;;;;;;5047730;28;20008;-62
2022/06/13 05:17:23;;;;;;;;;;;19.50;99.90;;;;;;5044652;28;19929;-63
2022/06/13 05:20:16;;;;;;;;;;;20.70;99.90;;;;;;5049607;28;19925;-62
2022/06/13 05:22:57;;;;;;;;;;;21.90;99.90;;;;;;5047075;28;20403;-63
2022/06/13 05:25:43;;;;;;;;;;;23.10;99.90;;;;;;5035372;28;19932;-63
2022/06/13 05:28:11;;;;;;;;;;;24.10;99.90;;;;;;5048308;28;20387;-64
2022/06/13 05:30:42;;;;;;;;;;;24.90;99.00;;;;;;5047401;28;19925;-63
2022/06/13 05:33:10;;;;;;;;;;;25.60;98.10;;;;;;5043902;28;19929;-63
2022/06/13 05:35:37;;;;;;;;;;;25.40;97.30;;;;;;5040287;28;20020;-63
2022/06/13 05:38:04;;;;;;;;;;;24.90;97.10;;;;;;5050610;28;19995;-63
2022/06/13 05:40:31;;;;;;;;;;;24.60;97.20;;;;;;5045950;28;19925;-63
2022/06/13 05:42:57;;;;;;;;;;;24.70;97.00;;;;;;5038443;28;19935;-63
2022/06/13 05:45:24;;;;;;;;;;;25.20;97.40;;;;;;5050248;28;19924;-63
2022/06/13 05:47:52;;;;;;;;;;;25.80;96.50;;;;;;5046606;28;19925;-63
2022/06/13 05:50:21;;;;;;;;;;;26.30;96.20;;;;;;5041180;28;20043;-65
2022/06/13 05:52:48;;;;;;;;;;;27.10;95.70;;;;;;5046433;28;20443;-64
2022/06/13 05:55:14;;;;;;;;;;;27.00;95.10;;;;;;5041720;28;19931;-63
2022/06/13 05:57:58;;;;;;;;;;;27.40;94.90;;;;;;5048360;28;20551;-63
2022/06/13 06:00:26;;;;;;;;;;;26.80;94.60;;;;;;5053388;28;20292;-63
2022/06/13 06:02:53;;;;;;;;;;;26.20;94.50;;;;;;5040209;28;19925;-64
2022/06/13 06:05:20;;;;;;;;;;;25.70;95.20;;;;;;5050784;28;19932;-63
2022/06/13 06:07:47;;;;;;;;;;;26.30;95.20;;;;;;5054432;28;19924;-63
2022/06/13 06:10:25;;;;;;;;;;;26.40;94.50;;;;;;5040567;28;20586;-63
2022/06/13 06:12:51;;;;;;;;;;;26.10;94.20;;;;;;5049973;28;20030;-63
2022/06/13 06:15:18;;;;;;;;;;;25.90;94.90;;;;;;5044680;28;20307;-65
2022/06/13 06:17:44;;;;;;;;;;;25.90;95.20;;;;;;5043701;28;19924;-63
2022/06/13 06:20:16;;;;;;;;;;;26.80;94.70;;;;;;5039705;28;19994;-64
2022/06/13 06:22:42;;;;;;;;;;;26.90;94.10;;;;;;5043886;28;19931;-62
2022/06/13 06:25:09;;;;;;;;;;;26.80;93.90;;;;;;5047652;28;19925;-65
2022/06/13 06:27:38;;;;;;;;;;;26.60;93.40;;;;;;5044292;28;19924;-63
2022/06/13 06:30:06;;;;;;;;;;;26.40;93.90;;;;;;5047146;28;20326;-64
2022/06/13 06:32:33;;;;;;;;;;;25.80;94.00;;;;;;5043963;28;20024;-64
2022/06/13 06:34:59;;;;;;;;;;;26.10;94.00;;;;;;5041409;28;19955;-61
2022/06/13 06:37:26;;;;;;;;;;;26.20;93.50;;;;;;5043745;28;19928;-64
2022/06/13 06:39:52;;;;;;;;;;;26.20;93.70;;;;;;5049099;28;19925;-64
2022/06/13 06:42:19;;;;;;;;;;;26.20;93.80;;;;;;5049228;28;19924;-63
2022/06/13 06:45:06;;;;;;;;;;;26.70;93.50;;;;;;5050169;28;19933;-64
2022/06/13 06:47:35;;;;;;;;;;;27.30;92.70;;;;;;5056400;28;19947;-63
2022/06/13 06:50:03;;;;;;;;;;;27.10;92.20;;;;;;5066498;28;19958;-63
2022/06/13 06:52:30;;;;;;;;;;;27.20;92.20;;;;;;5064768;28;19925;-64
2022/06/13 07:00:30;;;;;;;;;;;28.70;91.60;;;;;;5049149;28;19928;-63
2022/06/13 07:03:00;;;;;;;;;;;28.70;91.20;;;;;;5051239;28;19931;-65
2022/06/13 07:05:26;;;;;;;;;;;27.50;91.00;;;;;;5054226;28;20020;-64
2022/06/13 07:07:53;;;;;;;;;;;27.70;91.10;;;;;;5053356;28;19932;-64
2022/06/13 07:10:19;;;;;;;;;;;28.50;91.20;;;;;;5058052;28;19933;-64
2022/06/13 07:12:46;;;;;;;;;;;28.20;90.70;;;;;;5049809;28;19944;-64
2022/06/13 07:15:13;;;;;;;;;;;27.60;90.50;;;;;;5059494;28;19943;-64
2022/06/13 07:17:40;;;;;;;;;;;27.40;90.50;;;;;;5047946;28;20289;-63
2022/06/13 07:20:07;;;;;;;;;;;27.20;91.00;;;;;;5054968;28;19929;-64
2022/06/13 07:22:34;;;;;;;;;;;27.40;91.20;;;;;;5063371;28;20357;-65
2022/06/13 07:25:00;;;;;;;;;;;27.80;90.70;;;;;;5061113;28;20035;-64
2022/06/13 07:27:27;;;;;;;;;;;27.50;90.90;;;;;;5048727;28;20398;-64
2022/06/13 07:29:54;;;;;;;;;;;27.80;91.00;;;;;;5048224;28;19925;-65
2022/06/13 07:32:22;;;;;;;;;;;27.70;90.70;;;;;;5048233;28;19971;-64
2022/06/13 07:34:52;;;;;;;;;;;27.90;90.30;;;;;;5058234;28;19954;-64
2022/06/13 07:40:07;;;;;;;;;;;27.40;90.00;;;;;;5042652;28;19925;-63
2022/06/13 07:42:39;;;;;;;;;;;27.10;90.10;;;;;;5054597;28;20023;-64
2022/06/13 07:45:06;;;;;;;;;;;27.40;89.80;;;;;;5062677;28;19925;-63
2022/06/13 07:47:53;;;;;;;;;;;28.00;89.50;;;;;;5057723;28;19931;-64
2022/06/13 07:50:23;;;;;;;;;;;28.40;87.70;;;;;;5051990;28;20469;-66
2022/06/13 07:52:50;;;;;;;;;;;27.60;88.40;;;;;;5051011;28;20409;-64
2022/06/13 07:55:17;;;;;;;;;;;27.60;89.10;;;;;;5054413;28;19924;-63
2022/06/13 07:57:45;;;;;;;;;;;27.70;89.30;;;;;;5063103;28;19930;-63
2022/06/13 08:00:17;;;;;;;;;;;27.20;88.70;;;;;;5065984;28;19924;-65
2022/06/13 08:02:44;;;;;;;;;;;27.20;89.30;;;;;;5068030;28;19925;-65
2022/06/13 08:05:14;;;;;;;;;;;27.10;89.60;;;;;;5055591;28;19925;-63
2022/06/13 08:07:40;;;;;;;;;;;27.50;88.50;;;;;;5060565;28;20000;-63
2022/06/13 08:10:07;;;;;;;;;;;27.30;86.20;;;;;;5060054;28;19924;-65
2022/06/13 08:12:34;;;;;;;;;;;27.70;87.40;;;;;;5064778;28;19931;-63
2022/06/13 08:15:01;;;;;;;;;;;27.80;86.40;;;;;;5070274;28;19939;-63
2022/06/13 08:17:27;;;;;;;;;;;27.60;87.20;;;;;;5056382;28;19928;-64
2022/06/13 08:19:54;;;;;;;;;;;27.30;88.50;;;;;;5064804;28;19994;-64
2022/06/13 08:22:21;;;;;;;;;;;28.10;89.40;;;;;;5061747;28;19924;-64
2022/06/13 08:24:47;;;;;;;;;;;28.60;88.60;;;;;;5057831;28;20356;-63
2022/06/13 08:27:14;;;;;;;;;;;28.90;87.40;;;;;;5062163;28;20379;-63
2022/06/13 08:29:41;;;;;;;;;;;28.10;87.20;;;;;;5051701;28;19947;-62
2022/06/13 08:32:07;;;;;;;;;;;27.50;87.70;;;;;;5052413;28;20256;-64
2022/06/13 08:34:37;;;;;;;;;;;27.40;89.60;;;;;;5049512;28;19978;-64
2022/06/13 08:37:04;;;;;;;;;;;27.60;88.10;;;;;;5051937;28;19931;-64
2022/06/13 08:39:30;;;;;;;;;;;28.20;88.30;;;;;;5057196;28;19925;-64
2022/06/13 08:42:05;;;;;;;;;;;28.30;89.50;;;;;;5061434;28;19924;-65
2022/06/13 08:44:52;;;;;;;;;;;28.60;88.60;;;;;;5052562;28;20399;-64
2022/06/13 08:47:36;;;;;;;;;;;28.50;85.90;;;;;;5053824;28;19931;-63
2022/06/13 08:50:12;;;;;;;;;;;27.80;86.40;;;;;;5054022;28;19941;-64
2022/06/13 08:52:51;;;;;;;;;;;27.70;86.40;;;;;;5051866;28;19925;-63
2022/06/13 08:55:22;;;;;;;;;;;28.50;87.20;;;;;;5049847;28;19932;-64
2022/06/13 08:57:57;;;;;;;;;;;29.10;86.70;;;;;;5052364;28;20402;-64
2022/06/13 09:00:24;;;;;;;;;;;29.40;84.80;;;;;;5051576;28;20443;-65
2022/06/13 09:03:00;;;;;;;;;;;28.30;85.00;;;;;;5053053;28;20633;-66
2022/06/13 09:05:33;;;;;;;;;;;28.00;85.50;;;;;;5069047;28;19925;-64
2022/06/13 09:08:08;;;;;;;;;;;28.30;84.70;;;;;;5051305;28;19960;-63
2022/06/13 09:10:39;;;;;;;;;;;28.00;85.00;;;;;;5044841;28;19925;-63
2022/06/13 09:13:12;;;;;;;;;;;28.50;85.90;;;;;;5033049;28;20015;-64
2022/06/13 09:15:45;;;;;;;;;;;28.70;85.70;;;;;;5033747;28;19956;-65
2022/06/13 09:18:28;;;;;;;;;;;28.60;86.20;;;;;;5033333;28;20406;-64
2022/06/13 09:21:00;;;;;;;;;;;28.40;86.90;;;;;;5050823;28;20007;-63
2022/06/13 09:23:34;;;;;;;;;;;28.40;85.60;;;;;;5052755;28;19939;-64
2022/06/13 09:26:06;;;;;;;;;;;27.50;86.00;;;;;;5052873;28;19925;-63
2022/06/13 09:28:35;;;;;;;;;;;26.50;86.20;;;;;;5053371;28;19971;-63
2022/06/13 09:31:11;;;;;;;;;;;25.30;87.60;;;;;;5051277;28;20011;-64
2022/06/13 09:33:42;;;;;;;;;;;23.90;89.20;;;;;;5050580;28;19994;-63
2022/06/13 09:36:19;;;;;;;;;;;23.70;91.00;;;;;;5044133;28;19951;-65
2022/06/13 09:39:06;;;;;;;;;;;24.40;90.10;;;;;;5035276;28;19979;-64
2022/06/13 09:41:42;;;;;;;;;;;25.90;90.00;;;;;;5044241;28;20336;-63
2022/06/13 09:44:20;;;;;;;;;;;27.10;88.00;;;;;;5045598;28;19929;-64
2022/06/13 09:47:06;;;;;;;;;;;27.10;88.60;;;;;;5040204;28;19929;-64
2022/06/13 09:49:41;;;;;;;;;;;28.10;86.40;;;;;;5049484;28;19936;-63
2022/06/13 09:52:16;;;;;;;;;;;28.30;85.00;;;;;;5052462;28;19931;-63
2022/06/13 09:54:58;;;;;;;;;;;28.60;84.70;;;;;;5047638;28;19931;-63
2022/06/13 09:57:39;;;;;;;;;;;28.80;82.50;;;;;;5032044;28;20039;-64
2022/06/13 10:00:18;;;;;;;;;;;29.20;84.00;;;;;;5046011;28;20405;-63
2022/06/13 10:02:59;;;;;;;;;;;29.80;80.90;;;;;;5048037;28;19931;-63
2022/06/13 10:05:34;;;;;;;;;;;28.90;83.50;;;;;;5047646;28;20427;-62
2022/06/13 10:08:13;;;;;;;;;;;29.10;82.40;;;;;;5051714;28;19935;-64
2022/06/13 10:11:07;;;;;;;;;;;29.30;82.60;;;;;;5051685;28;19943;-65
2022/06/13 10:14:03;;;;;;;;;;;29.80;83.20;;;;;;5050747;28;20016;-63
2022/06/13 10:16:33;;;;;;;;;;;30.80;81.40;;;;;;5049945;28;19963;-65
2022/06/13 10:19:17;;;;;;;;;;;30.40;80.20;;;;;;5040366;28;19936;-65
2022/06/13 10:21:48;;;;;;;;;;;30.30;80.10;;;;;;5036899;28;19933;-64
2022/06/13 10:24:20;;;;;;;;;;;29.90;80.10;;;;;;5045099;28;19954;-64
2022/06/13 10:26:50;;;;;;;;;;;28.90;81.60;;;;;;5042160;28;19952;-63
2022/06/13 10:29:32;;;;;;;;;;;28.60;82.90;;;;;;5033422;28;19929;-65
2022/06/13 10:32:06;;;;;;;;;;;28.70;81.40;;;;;;5053769;28;19968;-63
2022/06/13 10:34:39;;;;;;;;;;;29.20;82.00;;;;;;5042766;28;19933;-63
2022/06/13 10:37:21;;;;;;;;;;;29.70;82.20;;;;;;5041354;28;19971;-65
2022/06/13 10:39:50;;;;;;;;;;;30.20;81.20;;;;;;5039518;28;19972;-64
2022/06/13 10:42:19;;;;;;;;;;;30.20;81.00;;;;;;5038754;28;19925;-63
2022/06/13 10:44:46;;;;;;;;;;;29.50;81.50;;;;;;5050423;28;20036;-64
2022/06/13 10:47:13;;;;;;;;;;;28.90;81.60;;;;;;5048044;28;20457;-63
2022/06/13 10:49:42;;;;;;;;;;;29.30;80.80;;;;;;5042257;28;19929;-64
2022/06/13 10:52:14;;;;;;;;;;;28.90;81.30;;;;;;5036943;28;20672;-64
2022/06/13 10:54:45;;;;;;;;;;;28.60;82.50;;;;;;5032783;28;19925;-63
2022/06/13 10:57:25;;;;;;;;;;;27.90;83.30;;;;;;5042350;28;19924;-63
2022/06/13 11:00:11;;;;;;;;;;;27.40;83.40;;;;;;5050425;28;20646;-64
2022/06/13 11:02:38;;;;;;;;;;;26.70;86.00;;;;;;5048828;28;20607;-64
2022/06/13 11:05:24;;;;;;;;;;;27.00;87.60;;;;;;5043322;28;20481;-64
2022/06/13 11:07:55;;;;;;;;;;;27.40;85.30;;;;;;5031221;28;19925;-68
2022/06/13 11:10:28;;;;;;;;;;;27.00;86.20;;;;;;5030984;28;19925;-63
2022/06/13 11:12:55;;;;;;;;;;;27.60;85.90;;;;;;5035872;28;19955;-62
2022/06/13 11:23:53;;;;;;;;;;;28.10;85.90;;;;;;5045107;28;19924;-64
2022/06/13 11:29:06;;;;;;;;;;;28.50;86.10;;;;;;5046650;28;19924;-64
2022/06/13 11:31:46;;;;;;;;;;;29.00;83.60;;;;;;5042471;28;19967;-66
2022/06/13 11:34:25;;;;;;;;;;;29.70;83.40;;;;;;5046174;28;19979;-65
2022/06/13 11:36:59;;;;;;;;;;;30.00;83.20;;;;;;5038466;28;19926;-64
2022/06/13 11:39:36;;;;;;;;;;;30.20;83.30;;;;;;5041749;28;20482;-65
2022/06/13 11:42:03;;;;;;;;;;;29.80;81.40;;;;;;5043902;28;20468;-65
2022/06/13 11:44:31;;;;;;;;;;;29.80;82.70;;;;;;5045327;28;19940;-67
2022/06/13 11:46:59;;;;;;;;;;;29.60;81.70;;;;;;5041247;28;20020;-66
2022/06/13 11:49:29;;;;;;;;;;;29.20;82.10;;;;;;5035859;28;19925;-64
2022/06/13 11:51:58;;;;;;;;;;;28.90;82.90;;;;;;5034602;28;19925;-66
2022/06/13 11:54:28;;;;;;;;;;;28.60;85.40;;;;;;5051429;28;20027;-66
2022/06/13 11:57:13;;;;;;;;;;;28.20;84.90;;;;;;5040145;28;20012;-63
2022/06/13 11:59:49;;;;;;;;;;;28.10;84.40;;;;;;5041566;28;19925;-64
2022/06/13 12:02:28;;;;;;;;;;;27.50;85.40;;;;;;5039828;28;20253;-63
2022/06/13 12:04:56;;;;;;;;;;;27.00;86.00;;;;;;5033752;28;19959;-63
2022/06/13 12:07:27;;;;;;;;;;;26.60;87.50;;;;;;5044944;28;19925;-63
2022/06/13 12:09:56;;;;;;;;;;;26.30;89.60;;;;;;5043690;28;19931;-66
2022/06/13 12:12:24;;;;;;;;;;;25.70;89.20;;;;;;5049807;28;20024;-71
2022/06/13 12:14:51;;;;;;;;;;;25.40;90.10;;;;;;5048300;28;19929;-71
2022/06/13 12:17:35;;;;;;;;;;;25.50;90.10;;;;;;5049035;28;19928;-68
2022/06/13 12:20:03;;;;;;;;;;;25.30;90.10;;;;;;5043317;28;19925;-69
2022/06/13 12:22:39;;;;;;;;;;;25.20;90.60;;;;;;5046734;28;19933;-71
2022/06/13 12:25:05;;;;;;;;;;;24.70;90.80;;;;;;5044576;28;19964;-69
2022/06/13 12:27:44;;;;;;;;;;;24.60;91.10;;;;;;5051352;28;19929;-72
2022/06/13 12:30:30;;;;;;;;;;;24.70;91.40;;;;;;5045640;28;19963;-68
2022/06/13 12:33:05;;;;;;;;;;;25.20;91.40;;;;;;5041024;28;19925;-69
2022/06/13 12:35:32;;;;;;;;;;;25.70;91.20;;;;;;5050219;28;20023;-68
2022/06/13 12:38:15;;;;;;;;;;;26.10;90.50;;;;;;5049070;28;19929;-68
2022/06/13 12:41:04;;;;;;;;;;;26.00;90.40;;;;;;5053787;28;19932;-72
2022/06/13 12:43:40;;;;;;;;;;;25.70;90.90;;;;;;5045652;28;19940;-70
2022/06/13 12:46:10;;;;;;;;;;;26.10;90.90;;;;;;5053329;28;19932;-73
2022/06/13 12:48:39;;;;;;;;;;;26.30;90.70;;;;;;5051141;28;19924;-68
2022/06/13 12:51:12;;;;;;;;;;;26.40;89.10;;;;;;5039110;28;20012;-69
2022/06/13 12:53:39;;;;;;;;;;;27.30;87.40;;;;;;5045584;28;19933;-76
2022/06/13 12:56:20;;;;;;;;;;;27.30;85.60;;;;;;5041350;28;20931;-74
2022/06/13 12:59:06;;;;;;;;;;;27.60;87.50;;;;;;5053145;28;19928;-75
2022/06/13 13:01:41;;;;;;;;;;;28.20;85.50;;;;;;5037776;28;19931;-73
2022/06/13 13:04:27;;;;;;;;;;;28.10;86.10;;;;;;5046422;28;19925;-73
2022/06/13 13:06:56;;;;;;;;;;;28.10;87.40;;;;;;5049351;28;19929;-67
2022/06/13 13:09:23;;;;;;;;;;;28.00;88.10;;;;;;5051662;28;19939;-70
2022/06/13 13:11:56;;;;;;;;;;;26.70;88.90;;;;;;5043822;28;20504;-69
2022/06/13 13:14:22;;;;;;;;;;;25.70;90.50;;;;;;5035726;28;19932;-71
2022/06/13 13:16:54;;;;;;;;;;;25.30;90.80;;;;;;5050336;28;19924;-72
2022/06/13 13:19:23;;;;;;;;;;;25.30;91.00;;;;;;5048293;28;19929;-69
2022/06/13 13:21:50;;;;;;;;;;;25.40;91.10;;;;;;5048715;28;19931;-70
2022/06/13 13:24:37;;;;;;;;;;;25.70;90.70;;;;;;5048828;28;20015;-69
2022/06/13 13:27:04;;;;;;;;;;;25.70;91.20;;;;;;5050804;28;20279;-70
2022/06/13 13:29:53;;;;;;;;;;;25.50;90.70;;;;;;5041531;28;20007;-68
2022/06/13 13:32:43;;;;;;;;;;;25.70;91.10;;;;;;5042497;28;19925;-69
2022/06/13 13:35:28;;;;;;;;;;;26.50;90.20;;;;;;5047235;28;20016;-70
2022/06/13 13:38:01;;;;;;;;;;;27.20;89.50;;;;;;5050686;28;20398;-72
2022/06/13 13:40:28;;;;;;;;;;;27.30;86.70;;;;;;5050634;28;20023;-69
2022/06/13 13:43:18;;;;;;;;;;;27.00;86.60;;;;;;5039923;28;19925;-66
2022/06/13 13:45:48;;;;;;;;;;;26.60;86.60;;;;;;5047637;28;19964;-66
2022/06/13 13:48:31;;;;;;;;;;;27.30;86.80;;;;;;5052646;28;20019;-63
2022/06/13 13:51:01;;;;;;;;;;;28.00;85.70;;;;;;5052916;28;20618;-67
2022/06/13 13:53:33;;;;;;;;;;;28.20;85.40;;;;;;5052013;28;20019;-65
2022/06/13 13:56:04;;;;;;;;;;;27.70;85.20;;;;;;5052856;28;20340;-67
2022/06/13 13:58:32;;;;;;;;;;;27.10;86.00;;;;;;5050699;28;19936;-65
2022/06/13 14:01:02;;;;;;;;;;;26.60;86.40;;;;;;5056880;28;20409;-64
2022/06/13 14:03:38;;;;;;;;;;;26.80;87.10;;;;;;5071070;28;19928;-66
2022/06/13 14:06:17;;;;;;;;;;;27.90;86.00;;;;;;5058163;28;19925;-65
2022/06/13 14:08:45;;;;;;;;;;;29.00;84.50;;;;;;5047114;28;19943;-65
2022/06/13 14:11:14;;;;;;;;;;;29.50;83.20;;;;;;5039718;28;19926;-65
2022/06/13 14:13:43;;;;;;;;;;;29.80;82.70;;;;;;5041166;28;19940;-68
2022/06/13 14:16:12;;;;;;;;;;;29.90;81.60;;;;;;5049509;28;20008;-66
2022/06/13 14:18:45;;;;;;;;;;;29.20;81.70;;;;;;5051822;28;20016;-65
2022/06/13 14:21:12;;;;;;;;;;;27.90;84.00;;;;;;5051796;28;19964;-66
2022/06/13 14:23:46;;;;;;;;;;;28.00;84.00;;;;;;5050222;28;19931;-65
2022/06/13 14:26:32;;;;;;;;;;;28.60;83.20;;;;;;5050536;28;20395;-65
2022/06/13 14:29:03;;;;;;;;;;;28.80;83.10;;;;;;5051080;28;19925;-67
2022/06/13 14:31:29;;;;;;;;;;;29.20;81.90;;;;;;5049986;28;19955;-65
2022/06/13 14:36:55;;;;;;;;;;;27.60;82.50;;;;;;5052009;28;19925;-66
2022/06/13 14:39:41;;;;;;;;;;;28.30;82.30;;;;;;5051906;28;20379;-67
2022/06/13 14:42:07;;;;;;;;;;;29.10;79.10;;;;;;5051205;28;20042;-65
2022/06/13 14:44:37;;;;;;;;;;;29.30;79.60;;;;;;5048680;28;19925;-67
2022/06/13 14:47:13;;;;;;;;;;;29.00;80.40;;;;;;5040753;28;19925;-65
2022/06/13 14:49:48;;;;;;;;;;;28.30;80.10;;;;;;5045181;28;19944;-66
2022/06/13 14:52:28;;;;;;;;;;;27.30;81.90;;;;;;5050440;28;19967;-63
2022/06/13 14:55:01;;;;;;;;;;;28.10;81.30;;;;;;5049811;28;20454;-65
2022/06/13 14:57:35;;;;;;;;;;;29.90;79.60;;;;;;5045101;28;19929;-65
2022/06/13 15:00:18;;;;;;;;;;;30.20;78.50;;;;;;5048023;28;19929;-64
2022/06/13 15:02:54;;;;;;;;;;;30.30;77.90;;;;;;5043758;28;19925;-64
2022/06/13 15:05:36;;;;;;;;;;;30.90;77.20;;;;;;5042952;28;20436;-65
2022/06/13 15:08:24;;;;;;;;;;;30.30;76.90;;;;;;5040519;28;19931;-64
2022/06/13 15:10:57;;;;;;;;;;;30.60;76.50;;;;;;5048492;28;19924;-65
2022/06/13 15:13:26;;;;;;;;;;;31.40;76.90;;;;;;5041148;28;19925;-65